createdAt,value
2022-11-28T00:00:39.622Z,5.01
2022-11-28T00:02:44.813Z,4.97
2022-11-28T00:04:53.726Z,4.94
2022-11-28T00:07:01.283Z,4.94
2022-11-28T00:09:06.924Z,4.92
2022-11-28T00:11:13.843Z,4.90
2022-11-28T00:13:18.689Z,4.88
2022-11-28T00:15:23.579Z,4.87
2022-11-28T00:17:31.230Z,4.89
2022-11-28T00:19:35.978Z,4.89
2022-11-28T00:21:42.316Z,4.91
2022-11-28T00:23:52.506Z,4.91
2022-11-28T00:26:01.224Z,4.91
2022-11-28T00:28:06.016Z,4.92
2022-11-28T00:30:12.452Z,4.95
2022-11-28T00:32:17.267Z,4.98
2022-11-28T00:34:22.132Z,4.96
2022-11-28T00:36:27.116Z,4.81
2022-11-28T00:38:33.206Z,4.84
2022-11-28T00:40:40.798Z,4.86
2022-11-28T00:42:47.358Z,4.93
2022-11-28T00:44:52.757Z,4.97
2022-11-28T00:46:57.554Z,5.03
2022-11-28T00:49:02.544Z,5.09
2022-11-28T00:51:12.035Z,5.14
2022-11-28T00:53:16.952Z,5.10
2022-11-28T00:55:22.032Z,5.06
2022-11-28T00:57:29.395Z,5.06
2022-11-28T00:59:34.181Z,5.07
2022-11-28T01:01:41.960Z,5.05
2022-11-28T01:03:50.864Z,5.08
2022-11-28T01:05:55.637Z,5.07
2022-11-28T01:08:00.479Z,5.13
2022-11-28T01:10:05.245Z,5.21
2022-11-28T01:12:10.301Z,5.30
2022-11-28T01:14:19.356Z,5.36
2022-11-28T01:16:24.941Z,5.41
2022-11-28T01:18:29.768Z,5.35
2022-11-28T01:20:34.860Z,5.38
2022-11-28T01:22:39.682Z,5.39
2022-11-28T01:24:46.861Z,5.26
2022-11-28T01:26:51.828Z,5.24
2022-11-28T01:28:57.164Z,5.19
2022-11-28T01:31:09.873Z,5.19
2022-11-28T01:33:14.765Z,5.18
2022-11-28T01:35:19.648Z,5.20
2022-11-28T01:37:24.483Z,5.21
2022-11-28T01:39:29.324Z,5.25
2022-11-28T01:41:34.161Z,5.23
2022-11-28T01:43:39.422Z,5.26
2022-11-28T01:45:47.281Z,5.29
2022-11-28T01:48:00.949Z,5.34
2022-11-28T01:50:09.669Z,5.31
2022-11-28T01:52:18.264Z,5.30
2022-11-28T01:54:26.937Z,5.21
2022-11-28T01:56:41.139Z,5.20
2022-11-28T01:58:49.816Z,5.14
2022-11-28T02:00:57.963Z,5.07
2022-11-28T02:03:13.040Z,5.05
2022-11-28T02:05:19.329Z,5.04
2022-11-28T02:07:24.508Z,5.00
2022-11-28T02:09:32.392Z,5.06
2022-11-28T02:11:54.342Z,5.01
2022-11-28T02:14:09.007Z,4.97
2022-11-28T02:16:27.749Z,5.02
2022-11-28T02:18:57.339Z,5.03
2022-11-28T02:21:31.173Z,5.07
2022-11-28T02:23:54.942Z,5.07
2022-11-28T02:26:28.919Z,5.06
2022-11-28T02:29:06.707Z,4.97
2022-11-28T02:31:30.462Z,4.96
2022-11-28T02:33:41.366Z,4.88
2022-11-28T02:35:56.961Z,4.81
2022-11-28T02:38:10.989Z,4.82
2022-11-28T02:40:22.098Z,4.89
2022-11-28T02:42:31.643Z,4.82
2022-11-28T02:44:46.030Z,4.74
2022-11-28T02:46:56.207Z,4.62
2022-11-28T02:49:08.235Z,4.60
2022-11-28T02:51:19.158Z,4.64
2022-11-28T02:53:27.408Z,4.70
2022-11-28T02:55:33.693Z,4.84
2022-11-28T02:57:40.785Z,4.92
2022-11-28T02:59:53.208Z,4.86
2022-11-28T03:01:58.161Z,4.78
2022-11-28T03:04:34.563Z,4.69
2022-11-28T03:06:51.538Z,4.75
2022-11-28T03:09:14.422Z,4.81
2022-11-28T03:11:26.086Z,4.86
2022-11-28T03:13:41.903Z,4.89
2022-11-28T03:15:55.682Z,4.94
2022-11-28T03:18:08.904Z,4.91
2022-11-28T03:20:26.827Z,4.95
2022-11-28T03:22:39.970Z,4.99
2022-11-28T03:24:49.721Z,4.92
2022-11-28T03:27:00.311Z,4.91
2022-11-28T03:29:14.736Z,4.84
2022-11-28T03:31:23.670Z,4.84
2022-11-28T03:33:33.506Z,4.83
2022-11-28T03:35:47.246Z,4.82
2022-11-28T03:37:56.381Z,4.76
2022-11-28T03:40:04.669Z,4.77
2022-11-28T03:42:13.313Z,4.81
2022-11-28T03:44:23.927Z,4.85
2022-11-28T03:46:35.900Z,4.94
2022-11-28T03:48:46.540Z,5.02
2022-11-28T03:51:02.567Z,5.07
2022-11-28T03:53:11.282Z,5.05
2022-11-28T03:55:24.769Z,5.10
2022-11-28T03:57:37.025Z,5.16
2022-11-28T03:59:45.905Z,5.17
2022-11-28T04:02:04.279Z,5.20
2022-11-28T04:04:17.206Z,5.22
2022-11-28T04:06:28.791Z,5.26
2022-11-28T04:08:40.019Z,5.32
2022-11-28T04:10:48.757Z,5.36
2022-11-28T04:12:59.710Z,5.42
2022-11-28T04:15:11.946Z,5.40
2022-11-28T04:17:22.443Z,5.41
2022-11-28T04:19:33.883Z,5.37
2022-11-28T04:21:48.711Z,5.41
2022-11-28T04:23:57.133Z,5.39
2022-11-28T04:26:07.419Z,5.39
2022-11-28T04:28:16.406Z,5.43
2022-11-28T04:30:21.380Z,5.42
2022-11-28T04:32:28.663Z,5.41
2022-11-28T04:34:35.720Z,5.40
2022-11-28T04:36:47.607Z,5.42
2022-11-28T04:38:59.481Z,5.46
2022-11-28T04:41:07.957Z,5.50
2022-11-28T04:43:20.318Z,5.57
2022-11-28T04:45:30.750Z,5.60
2022-11-28T04:47:35.624Z,5.59
2022-11-28T04:49:41.212Z,5.57
2022-11-28T04:51:55.150Z,5.58
2022-11-28T04:54:04.781Z,5.61
2022-11-28T04:56:16.427Z,5.61
2022-11-28T04:58:25.180Z,5.60
2022-11-28T05:00:30.316Z,5.59
2022-11-28T05:02:35.729Z,5.57
2022-11-28T05:04:41.241Z,5.53
2022-11-28T05:06:48.916Z,5.47
2022-11-28T05:08:54.056Z,5.40
2022-11-28T05:10:58.836Z,5.32
2022-11-28T05:13:03.636Z,5.02
2022-11-28T05:15:09.686Z,4.91
2022-11-28T05:17:15.580Z,4.89
2022-11-28T05:19:20.413Z,4.86
2022-11-28T05:21:25.242Z,4.87
2022-11-28T05:23:32.608Z,4.89
2022-11-28T05:25:37.430Z,4.79
2022-11-28T05:27:42.290Z,4.72
2022-11-28T05:29:52.080Z,4.75
2022-11-28T05:31:57.124Z,4.86
2022-11-28T05:34:02.035Z,4.81
2022-11-28T05:36:12.612Z,4.86
2022-11-28T05:38:18.046Z,4.94
2022-11-28T05:40:25.781Z,4.97
2022-11-28T05:42:30.599Z,4.95
2022-11-28T05:44:35.349Z,4.86
2022-11-28T05:46:40.351Z,4.85
2022-11-28T05:48:48.107Z,4.89
2022-11-28T05:50:53.493Z,4.92
2022-11-28T05:52:57.993Z,4.88
2022-11-28T05:55:03.120Z,4.87
2022-11-28T05:57:10.521Z,4.86
2022-11-28T05:59:15.782Z,4.90
2022-11-28T06:01:21.956Z,4.91
2022-11-28T06:03:26.674Z,4.94
2022-11-28T06:05:46.154Z,5.04
2022-11-28T06:07:51.106Z,5.15
2022-11-28T06:09:55.941Z,5.21
2022-11-28T06:12:00.763Z,5.27
2022-11-28T06:14:08.136Z,5.34
2022-11-28T06:16:14.449Z,5.41
2022-11-28T06:18:19.334Z,5.43
2022-11-28T06:20:24.137Z,5.48
2022-11-28T06:22:29.113Z,5.45
2022-11-28T06:24:33.925Z,5.50
2022-11-28T06:26:38.669Z,5.51
2022-11-28T06:28:44.414Z,5.47
2022-11-28T06:30:54.058Z,5.48
2022-11-28T06:32:58.864Z,5.52
2022-11-28T06:35:03.663Z,5.51
2022-11-28T06:37:08.512Z,5.50
2022-11-28T06:39:16.221Z,5.48
2022-11-28T06:41:23.062Z,5.43
2022-11-28T06:43:28.050Z,5.47
2022-11-28T06:45:32.882Z,5.47
2022-11-28T06:47:40.380Z,5.49
2022-11-28T06:49:48.145Z,5.50
2022-11-28T06:51:52.866Z,5.51
2022-11-28T06:53:57.886Z,5.52
2022-11-28T06:56:07.649Z,5.49
2022-11-28T06:58:12.634Z,5.47
2022-11-28T07:00:18.604Z,5.48
2022-11-28T07:02:25.235Z,5.46
2022-11-28T07:04:32.858Z,5.47
2022-11-28T07:06:37.774Z,5.46
2022-11-28T07:08:42.976Z,5.43
2022-11-28T07:10:47.795Z,5.41
2022-11-28T07:12:56.604Z,5.34
2022-11-28T07:15:01.460Z,5.24
2022-11-28T07:17:06.336Z,5.25
2022-11-28T07:19:11.203Z,5.31
2022-11-28T07:21:19.019Z,5.31
2022-11-28T07:23:26.564Z,5.25
2022-11-28T07:25:31.317Z,5.24
2022-11-28T07:27:36.154Z,5.25
2022-11-28T07:29:41.164Z,5.11
2022-11-28T07:31:46.366Z,5.15
2022-11-28T07:33:53.430Z,5.25
2022-11-28T07:36:02.085Z,5.34
2022-11-28T07:38:09.526Z,5.34
2022-11-28T07:40:14.675Z,5.41
2022-11-28T07:42:19.434Z,5.43
2022-11-28T07:44:40.894Z,5.44
2022-11-28T07:46:48.236Z,5.51
2022-11-28T07:48:53.046Z,5.49
2022-11-28T07:50:58.123Z,5.44
2022-11-28T07:53:07.269Z,5.49
2022-11-28T07:55:14.914Z,5.47
2022-11-28T07:57:19.756Z,5.36
2022-11-28T07:59:24.588Z,5.39
2022-11-28T08:01:31.783Z,5.37
2022-11-28T08:03:36.564Z,5.38
2022-11-28T08:05:42.381Z,5.35
2022-11-28T08:07:47.186Z,5.41
2022-11-28T08:09:52.037Z,5.44
2022-11-28T08:11:59.412Z,5.46
2022-11-28T08:14:05.117Z,5.43
2022-11-28T08:16:12.216Z,5.46
2022-11-28T08:18:17.622Z,5.51
2022-11-28T08:20:22.382Z,5.57
2022-11-28T08:22:27.162Z,5.63
2022-11-28T08:24:31.952Z,5.70
2022-11-28T08:26:37.539Z,5.65
2022-11-28T08:28:46.138Z,5.63
2022-11-28T08:30:51.016Z,5.61
2022-11-28T08:32:55.831Z,5.62
2022-11-28T08:35:00.658Z,5.67
2022-11-28T08:37:05.460Z,5.74
2022-11-28T08:39:25.964Z,5.72
2022-11-28T08:41:30.867Z,5.75
2022-11-28T08:43:37.334Z,5.71
2022-11-28T08:45:44.826Z,5.71
2022-11-28T08:47:49.721Z,5.74
2022-11-28T08:49:56.254Z,5.76
2022-11-28T08:52:01.183Z,5.74
2022-11-28T08:54:06.137Z,5.67
2022-11-28T08:56:11.503Z,5.71
2022-11-28T08:58:16.615Z,5.74
2022-11-28T09:00:22.330Z,5.72
2022-11-28T09:02:29.817Z,5.76
2022-11-28T09:04:34.581Z,5.75
2022-11-28T09:06:41.607Z,5.79
2022-11-28T09:08:47.124Z,5.83
2022-11-28T09:10:51.891Z,5.90
2022-11-28T09:12:57.265Z,5.90
2022-11-28T09:15:02.069Z,5.93
2022-11-28T09:17:06.972Z,5.97
2022-11-28T09:19:14.522Z,6.05
2022-11-28T09:21:19.448Z,6.17
2022-11-28T09:23:24.182Z,6.27
2022-11-28T09:25:28.957Z,6.28
2022-11-28T09:27:33.733Z,6.21
2022-11-28T09:29:38.481Z,6.21
2022-11-28T09:31:47.405Z,6.22
2022-11-28T09:33:52.634Z,6.26
2022-11-28T09:36:00.512Z,6.23
2022-11-28T09:38:05.303Z,6.27
2022-11-28T09:40:18.069Z,6.30
2022-11-28T09:42:31.450Z,6.39
2022-11-28T09:44:41.433Z,6.42
2022-11-28T09:46:47.641Z,6.48
2022-11-28T09:48:56.294Z,6.50
2022-11-28T09:51:20.703Z,6.52
2022-11-28T09:53:31.346Z,6.58
2022-11-28T09:55:41.191Z,6.64
2022-11-28T09:57:52.556Z,6.62
2022-11-28T09:59:57.661Z,6.65
2022-11-28T10:02:18.532Z,6.69
2022-11-28T10:04:31.265Z,6.73
2022-11-28T10:06:53.428Z,6.75
2022-11-28T10:09:19.770Z,6.67
2022-11-28T10:11:29.478Z,6.70
2022-11-28T10:14:07.337Z,6.72
2022-11-28T10:16:21.034Z,6.78
2022-11-28T10:18:37.967Z,6.80
2022-11-28T10:20:46.210Z,6.84
2022-11-28T10:22:59.418Z,6.90
2022-11-28T10:25:13.163Z,6.93
2022-11-28T10:27:25.448Z,6.99
2022-11-28T10:29:41.773Z,6.96
2022-11-28T10:31:49.543Z,6.97
2022-11-28T10:34:00.600Z,7.03
2022-11-28T10:36:06.620Z,7.10
2022-11-28T10:38:17.440Z,7.13
2022-11-28T10:40:30.437Z,7.12
2022-11-28T10:42:43.554Z,7.16
2022-11-28T10:44:59.078Z,7.21
2022-11-28T10:47:10.169Z,7.23
2022-11-28T10:49:33.349Z,7.28
2022-11-28T10:51:49.696Z,7.27
2022-11-28T10:54:08.613Z,7.31
2022-11-28T10:56:20.822Z,7.32
2022-11-28T10:58:30.195Z,7.26
2022-11-28T11:00:38.414Z,7.30
2022-11-28T11:02:47.766Z,7.37
2022-11-28T11:04:52.633Z,7.39
2022-11-28T11:07:10.140Z,7.43
2022-11-28T11:09:18.884Z,7.41
2022-11-28T11:11:28.302Z,7.42
2022-11-28T11:13:35.446Z,7.46
2022-11-28T11:15:40.902Z,7.49
2022-11-28T11:17:50.401Z,7.55
2022-11-28T11:19:55.190Z,7.56
2022-11-28T11:22:06.175Z,7.59
2022-11-28T11:24:15.764Z,7.66
2022-11-28T11:26:28.517Z,7.67
2022-11-28T11:28:46.054Z,7.69
2022-11-28T11:30:50.947Z,7.65
2022-11-28T11:32:56.996Z,7.66
2022-11-28T11:35:02.734Z,7.68
2022-11-28T11:37:34.015Z,7.63
2022-11-28T11:39:49.472Z,7.62
2022-11-28T11:42:21.905Z,7.68
2022-11-28T11:44:35.006Z,7.66
2022-11-28T11:46:53.968Z,7.72
2022-11-28T11:48:58.947Z,7.70
2022-11-28T11:51:03.691Z,7.74
2022-11-28T11:53:15.163Z,7.80
2022-11-28T11:55:20.759Z,7.78
2022-11-28T11:57:35.142Z,7.76
2022-11-28T11:59:43.936Z,7.77
2022-11-28T12:01:58.371Z,7.78
2022-11-28T12:04:23.735Z,7.82
2022-11-28T12:06:32.275Z,7.89
2022-11-28T12:08:42.071Z,7.91
2022-11-28T12:10:53.421Z,7.96
2022-11-28T12:13:01.186Z,7.93
2022-11-28T12:15:06.378Z,7.98
2022-11-28T12:17:58.435Z,7.99
2022-11-28T12:20:29.973Z,7.88
2022-11-28T12:22:44.061Z,7.97
2022-11-28T12:24:58.658Z,8.00
2022-11-28T12:27:09.303Z,8.01
2022-11-28T12:29:43.307Z,8.04
2022-11-28T12:31:58.755Z,7.98
2022-11-28T12:34:15.467Z,7.92
2022-11-28T12:36:29.956Z,8.01
2022-11-28T12:38:46.657Z,8.06
2022-11-28T12:41:08.752Z,8.05
2022-11-28T12:43:25.255Z,8.12
2022-11-28T12:45:46.925Z,8.20
2022-11-28T12:48:02.677Z,8.14
2022-11-28T12:50:14.163Z,8.10
2022-11-28T12:52:27.924Z,8.12
2022-11-28T12:54:50.678Z,8.04
2022-11-28T12:57:01.830Z,8.00
2022-11-28T12:59:15.408Z,8.01
2022-11-28T13:01:38.797Z,8.04
2022-11-28T13:03:52.538Z,8.08
2022-11-28T13:06:11.753Z,8.15
2022-11-28T13:08:32.649Z,8.11
2022-11-28T13:10:44.738Z,8.10
2022-11-28T13:12:58.822Z,8.12
2022-11-28T13:15:11.345Z,8.16
2022-11-28T13:17:29.127Z,8.19
2022-11-28T13:19:46.736Z,8.16
2022-11-28T13:21:58.555Z,8.06
2022-11-28T13:24:09.621Z,8.06
2022-11-28T13:26:22.533Z,8.02
2022-11-28T13:28:33.637Z,8.05
2022-11-28T13:30:44.748Z,8.01
2022-11-28T13:32:57.552Z,8.03
2022-11-28T13:35:02.902Z,8.05
2022-11-28T13:39:42.268Z,7.89
2022-11-28T13:42:21.325Z,7.92
2022-11-28T13:44:23.601Z,7.95
2022-11-28T13:46:28.549Z,7.93
2022-11-28T13:49:14.817Z,7.94
2022-11-28T13:51:31.011Z,7.93
2022-11-28T13:53:36.542Z,7.89
2022-11-28T13:55:44.920Z,7.85
2022-11-28T13:57:49.968Z,7.83
2022-11-28T14:00:01.806Z,7.85
2022-11-28T14:02:25.304Z,7.89
2022-11-28T14:04:32.822Z,7.82
2022-11-28T14:06:48.816Z,7.81
2022-11-28T14:09:06.724Z,7.75
2022-11-28T14:11:37.194Z,7.73
2022-11-28T14:14:03.961Z,7.69
2022-11-28T14:16:21.410Z,7.68
2022-11-28T14:18:56.286Z,7.70
2022-11-28T14:21:06.182Z,7.74
2022-11-28T14:23:28.653Z,7.76
2022-11-28T14:25:35.964Z,7.73
2022-11-28T14:27:43.642Z,7.74
2022-11-28T14:29:52.756Z,7.75
2022-11-28T14:32:28.546Z,7.73
2022-11-28T14:34:40.506Z,7.81
2022-11-28T14:36:45.901Z,7.83
2022-11-28T14:39:14.647Z,7.83
2022-11-28T14:41:19.633Z,7.83
2022-11-28T14:43:29.347Z,7.84
2022-11-28T14:45:46.369Z,7.86
2022-11-28T14:48:09.443Z,7.86
2022-11-28T14:50:44.773Z,7.81
2022-11-28T14:52:54.380Z,7.78
2022-11-28T14:55:03.187Z,7.79
2022-11-28T14:57:18.354Z,7.79
2022-11-28T14:59:27.628Z,7.78
2022-11-28T15:01:52.711Z,7.72
2022-11-28T15:04:02.783Z,7.67
2022-11-28T15:06:14.897Z,7.64
2022-11-28T15:08:35.762Z,7.64
2022-11-28T15:10:52.245Z,7.63
2022-11-28T15:13:03.804Z,7.60
2022-11-28T15:15:17.087Z,7.58
2022-11-28T15:17:28.489Z,7.55
2022-11-28T15:19:37.257Z,7.47
2022-11-28T15:21:46.990Z,7.43
2022-11-28T15:23:52.796Z,7.37
2022-11-28T15:26:02.124Z,7.39
2022-11-28T15:28:17.251Z,7.41
2022-11-28T15:30:26.654Z,7.39
2022-11-28T15:32:34.254Z,7.42
2022-11-28T15:34:41.694Z,7.44
2022-11-28T15:36:47.584Z,7.41
2022-11-28T15:38:52.488Z,7.39
2022-11-28T15:41:02.249Z,7.28
2022-11-28T15:43:12.956Z,7.24
2022-11-28T15:45:26.756Z,7.24
2022-11-28T15:47:32.040Z,7.30
2022-11-28T15:49:43.172Z,7.30
2022-11-28T15:51:59.762Z,7.33
2022-11-28T15:54:11.976Z,7.37
2022-11-28T15:56:22.686Z,7.35
2022-11-28T15:58:31.412Z,7.24
2022-11-28T16:00:38.140Z,7.22
2022-11-28T16:02:45.188Z,7.22
2022-11-28T16:04:52.695Z,7.24
2022-11-28T16:07:00.349Z,7.23
2022-11-28T16:09:10.804Z,7.24
2022-11-28T16:11:20.538Z,7.24
2022-11-28T16:13:28.744Z,7.20
2022-11-28T16:15:34.369Z,7.13
2022-11-28T16:17:42.976Z,7.17
2022-11-28T16:19:49.098Z,7.11
2022-11-28T16:21:56.615Z,7.14
2022-11-28T16:24:03.513Z,7.15
2022-11-28T16:26:10.764Z,7.16
2022-11-28T16:28:37.723Z,7.13
2022-11-28T16:30:48.069Z,7.08
2022-11-28T16:32:55.340Z,7.13
2022-11-28T16:35:02.591Z,7.13
2022-11-28T16:37:13.681Z,7.11
2022-11-28T16:39:20.163Z,7.08
2022-11-28T16:41:30.650Z,7.08
2022-11-28T16:43:41.014Z,7.09
2022-11-28T16:45:45.930Z,7.09
2022-11-28T16:47:58.257Z,7.12
2022-11-28T16:50:19.335Z,7.08
2022-11-28T16:52:47.611Z,6.94
2022-11-28T16:54:53.681Z,6.94
2022-11-28T16:57:01.046Z,6.95
2022-11-28T16:59:14.778Z,6.96
2022-11-28T17:01:21.698Z,6.97
2022-11-28T17:03:45.910Z,7.00
2022-11-28T17:05:50.650Z,7.00
2022-11-28T17:07:55.891Z,6.99
2022-11-28T17:10:00.418Z,6.95
2022-11-28T17:12:07.156Z,6.83
2022-11-28T17:14:15.508Z,6.83
2022-11-28T17:16:22.571Z,6.80
2022-11-28T17:18:27.420Z,6.84
2022-11-28T17:20:32.303Z,6.88
2022-11-28T17:22:41.541Z,6.86
2022-11-28T17:24:47.214Z,6.84
2022-11-28T17:26:53.204Z,6.82
2022-11-28T17:28:58.193Z,6.80
2022-11-28T17:31:05.780Z,6.78
2022-11-28T17:33:10.651Z,6.83
2022-11-28T17:35:19.636Z,6.84
2022-11-28T17:37:24.462Z,6.86
2022-11-28T17:39:30.269Z,6.90
2022-11-28T17:41:35.101Z,6.86
2022-11-28T17:43:40.025Z,6.93
2022-11-28T17:45:47.390Z,6.93
2022-11-28T17:47:57.050Z,6.92
2022-11-28T17:50:01.866Z,6.90
2022-11-28T17:52:06.685Z,6.88
2022-11-28T17:54:14.190Z,6.89
2022-11-28T17:56:19.168Z,6.88
2022-11-28T17:58:26.026Z,6.85
2022-11-28T18:00:32.945Z,6.77
2022-11-28T18:02:37.918Z,6.75
2022-11-28T18:04:47.929Z,6.75
2022-11-28T18:06:53.454Z,6.77
2022-11-28T18:08:57.973Z,6.72
2022-11-28T18:11:07.049Z,6.73
2022-11-28T18:13:12.410Z,6.67
2022-11-28T18:15:17.337Z,6.67
2022-11-28T18:17:23.138Z,6.70
2022-11-28T18:19:28.197Z,6.71
2022-11-28T18:21:35.852Z,6.78
2022-11-28T18:23:41.415Z,6.82
2022-11-28T18:25:52.641Z,6.82
2022-11-28T18:27:58.556Z,6.81
2022-11-28T18:30:03.452Z,6.85
2022-11-28T18:32:08.326Z,6.83
2022-11-28T18:34:13.142Z,6.84
2022-11-28T18:36:20.264Z,6.87
2022-11-28T18:38:28.421Z,6.93
2022-11-28T18:40:33.979Z,6.89
2022-11-28T18:42:39.051Z,6.93
2022-11-28T18:44:45.191Z,6.90
2022-11-28T18:46:51.428Z,6.84
2022-11-28T18:48:56.329Z,6.80
2022-11-28T18:51:02.122Z,6.75
2022-11-28T18:53:06.794Z,6.65
2022-11-28T18:55:14.315Z,6.62
2022-11-28T18:57:19.521Z,6.67
2022-11-28T18:59:24.641Z,6.72
2022-11-28T19:01:31.952Z,6.66
2022-11-28T19:03:36.871Z,6.71
2022-11-28T19:05:44.724Z,6.76
2022-11-28T19:07:49.761Z,6.79
2022-11-28T19:09:57.898Z,6.78
2022-11-28T19:12:05.527Z,6.78
2022-11-28T19:14:11.759Z,6.78
2022-11-28T19:16:20.457Z,6.82
2022-11-28T19:18:25.789Z,6.80
2022-11-28T19:20:30.737Z,6.84
2022-11-28T19:22:37.673Z,6.84
2022-11-28T19:24:42.469Z,6.81
2022-11-28T19:26:54.045Z,6.85
2022-11-28T19:29:02.097Z,6.89
2022-11-28T19:31:11.002Z,6.91
2022-11-28T19:33:16.274Z,6.92
2022-11-28T19:35:21.181Z,6.89
2022-11-28T19:37:26.002Z,6.91
2022-11-28T19:39:31.003Z,6.95
2022-11-28T19:41:35.989Z,6.93
2022-11-28T19:43:40.880Z,6.93
2022-11-28T19:45:59.106Z,6.90
2022-11-28T19:48:04.031Z,6.92
2022-11-28T19:50:10.715Z,6.94
2022-11-28T19:52:15.708Z,6.95
2022-11-28T19:56:45.958Z,6.99
2022-11-28T19:58:52.687Z,7.02
2022-11-28T20:01:06.458Z,6.96
2022-11-28T20:03:11.566Z,6.96
2022-11-28T20:05:16.692Z,6.97
2022-11-28T20:07:21.524Z,6.94
2022-11-28T20:09:26.417Z,6.93
2022-11-28T20:11:33.131Z,6.94
2022-11-28T20:13:38.055Z,6.92
2022-11-28T20:15:43.425Z,6.91
2022-11-28T20:17:51.222Z,6.88
2022-11-28T20:19:56.497Z,6.86
2022-11-28T20:22:01.697Z,6.88
2022-11-28T20:24:08.776Z,6.89
2022-11-28T20:26:14.579Z,6.88
2022-11-28T20:28:20.071Z,6.84
2022-11-28T20:30:25.362Z,6.80
2022-11-28T20:32:30.843Z,6.79
2022-11-28T20:34:38.377Z,6.78
2022-11-28T20:36:43.785Z,6.71
2022-11-28T20:38:49.674Z,6.70
2022-11-28T20:40:54.412Z,6.67
2022-11-28T20:42:59.908Z,6.60
2022-11-28T20:45:05.357Z,6.62
2022-11-28T20:47:11.727Z,6.64
2022-11-28T20:49:17.435Z,6.66
2022-11-28T20:51:27.768Z,6.65
2022-11-28T20:53:35.173Z,6.64
2022-11-28T20:55:40.052Z,6.68
2022-11-28T20:57:44.838Z,6.69
2022-11-28T20:59:49.617Z,6.74
2022-11-28T21:01:54.609Z,6.81
2022-11-28T21:03:59.674Z,6.85
2022-11-28T21:06:04.471Z,6.87
2022-11-28T21:08:11.827Z,6.86
2022-11-28T21:10:16.585Z,6.82
2022-11-28T21:12:21.401Z,6.79
2022-11-28T21:14:26.188Z,6.80
2022-11-28T21:16:33.903Z,6.79
2022-11-28T21:18:40.939Z,6.83
2022-11-28T21:20:47.908Z,6.82
2022-11-28T21:22:52.786Z,6.77
2022-11-28T21:25:00.282Z,6.77
2022-11-28T21:27:05.159Z,6.77
2022-11-28T21:29:10.958Z,6.75
2022-11-28T21:31:18.464Z,6.74
2022-11-28T21:33:23.307Z,6.76
2022-11-28T21:35:28.406Z,6.79
2022-11-28T21:37:33.185Z,6.83
2022-11-28T21:39:37.991Z,6.88
2022-11-28T21:41:47.479Z,6.91
2022-11-28T21:43:52.658Z,6.92
2022-11-28T21:45:58.212Z,6.91
2022-11-28T21:48:03.004Z,6.90
2022-11-28T21:50:09.311Z,6.90
2022-11-28T21:52:16.035Z,6.93
2022-11-28T21:54:22.361Z,6.93
2022-11-28T21:56:27.308Z,6.90
2022-11-28T21:58:34.850Z,6.90
2022-11-28T22:00:53.303Z,6.88
2022-11-28T22:03:05.717Z,6.82
2022-11-28T22:05:12.119Z,6.79
2022-11-28T22:07:17.067Z,6.82
2022-11-28T22:09:21.996Z,6.84
2022-11-28T22:11:27.042Z,6.82
2022-11-28T22:13:35.087Z,6.77
2022-11-28T22:15:43.136Z,6.74
2022-11-28T22:17:48.005Z,6.65
2022-11-28T22:19:53.454Z,6.63
2022-11-28T22:21:58.489Z,6.57
2022-11-28T22:24:03.321Z,6.55
2022-11-28T22:26:09.258Z,6.55
2022-11-28T22:28:14.033Z,6.55
2022-11-28T22:30:21.794Z,6.54
2022-11-28T22:32:26.700Z,6.44
2022-11-28T22:34:34.597Z,6.49
2022-11-28T22:36:43.625Z,6.51
2022-11-28T22:38:50.447Z,6.50
2022-11-28T22:40:55.768Z,6.48
2022-11-28T22:43:00.569Z,6.47
2022-11-28T22:45:05.715Z,6.53
2022-11-28T22:47:13.519Z,6.54
2022-11-28T22:49:18.804Z,6.50
2022-11-28T22:51:24.849Z,6.43
2022-11-28T22:53:30.545Z,6.36
2022-11-28T22:55:37.765Z,6.38
2022-11-28T22:57:42.591Z,6.42
2022-11-28T22:59:47.401Z,6.43
2022-11-28T23:01:52.562Z,6.45
2022-11-28T23:04:00.276Z,6.48
2022-11-28T23:06:08.553Z,6.40
2022-11-28T23:08:14.176Z,6.41
2022-11-28T23:10:20.161Z,6.45
2022-11-28T23:12:25.922Z,6.42
2022-11-28T23:14:30.968Z,6.43
2022-11-28T23:16:37.589Z,6.43
2022-11-28T23:18:45.736Z,6.44
2022-11-28T23:20:53.110Z,6.46
2022-11-28T23:22:57.953Z,6.42
2022-11-28T23:25:03.084Z,6.43
2022-11-28T23:27:07.956Z,6.42
2022-11-28T23:29:12.731Z,6.38
2022-11-28T23:31:19.315Z,6.37
2022-11-28T23:33:24.118Z,6.42
2022-11-28T23:35:28.909Z,6.46
2022-11-28T23:37:40.054Z,6.45
2022-11-28T23:39:44.794Z,6.43
2022-11-28T23:41:52.017Z,6.42
2022-11-28T23:43:56.677Z,6.40
2022-11-28T23:46:01.584Z,6.39
2022-11-28T23:48:06.689Z,6.30
2022-11-28T23:50:12.474Z,6.31
2022-11-28T23:52:17.257Z,6.30
2022-11-28T23:54:24.811Z,6.35
2022-11-28T23:56:31.432Z,6.34
2022-11-28T23:58:37.090Z,6.37
